METAR Data
IDs: Format: Raw Decoded Include TAF

Data at: 1633 UTC 19 Sep 2018

K4BM 191612Z AUTO 23008KT 10SM CLR 13/M07 A3045 RMK AO2
K4BM 191553Z AUTO 23007KT 10SM CLR 13/M06 A3045 RMK AO2
K4BM 191535Z AUTO 25004KT 10SM CLR 14/M07 A3045 RMK AO2
K4BM 191511Z AUTO 27003KT 10SM CLR 13/M08 A3045 RMK AO2
K4BM 191454Z AUTO 26003KT 10SM CLR 12/M07 A3045 RMK AO2
K4BM 191430Z AUTO 28005KT 10SM CLR 11/M07 A3045 RMK AO2
K4BM 191412Z AUTO 28006KT 10SM CLR 11/M07 A3045 RMK AO2
K4BM 191352Z AUTO 28006KT 10SM CLR 10/M07 A3044 RMK AO2
K4BM 191334Z AUTO 27006KT 10SM CLR 10/M07 A3044 RMK AO2
K4BM 191311Z AUTO 25007KT 10SM CLR 10/M06 A3044 RMK AO2
K4BM 191254Z AUTO 25008KT 10SM CLR 10/M06 A3043 RMK AO2 LTG DSNT NW
K4BM 191230Z AUTO 26007KT 230V290 10SM CLR 10/M06 A3043 RMK AO2 LTG DSNT NW
K4BM 191212Z AUTO 26007KT 230V290 10SM CLR 10/M06 A3043 RMK AO2
K4BM 191154Z AUTO 26006KT 10SM CLR 11/M06 A3043 RMK AO2
K4BM 191130Z AUTO 26007KT 10SM CLR 11/M06 A3043 RMK AO2
K4BM 191112Z AUTO 25007KT 10SM CLR 11/M06 A3043 RMK AO2
K4BM 191054Z AUTO 25006KT 10SM CLR 11/M06 A3043 RMK AO2 LTG DSNT NW
K4BM 191030Z AUTO 26007KT 10SM CLR 11/M07 A3043 RMK AO2
K4BM 191012Z AUTO 26006KT 10SM CLR 11/M07 A3043 RMK AO2
K4BM 190954Z AUTO 26007KT 10SM CLR 11/M07 A3043 RMK AO2 LTG DSNT NW
K4BM 190930Z AUTO 26007KT 10SM CLR 11/M07 A3044 RMK AO2
K4BM 190912Z AUTO 25007KT 10SM CLR 11/M07 A3044 RMK AO2 LTG DSNT NW
K4BM 190854Z AUTO 25007KT 10SM CLR 11/M07 A3045 RMK AO2
K4BM 190830Z AUTO 26007KT 10SM CLR 11/M08 A3045 RMK AO2
K4BM 190812Z AUTO 25007KT 220V280 10SM CLR 11/M07 A3045 RMK AO2 LTG DSNT NW
K4BM 190753Z AUTO 26006KT 10SM CLR 12/M07 A3045 RMK AO2
K4BM 190735Z AUTO 24008KT 10SM CLR 12/M08 A3045 RMK AO2
K4BM 190729Z AUTO 26007KT 10SM CLR 12/M08 A3045 RMK AO2
K4BM 190712Z AUTO 27006KT 10SM CLR 12/M07 A3045 RMK AO2 LTG DSNT NW
K4BM 190654Z AUTO 26005KT 10SM CLR 12/M07 A3045 RMK AO2
K4BM 190630Z AUTO 26005KT 10SM CLR 13/M06 A3046 RMK AO2
K4BM 190612Z AUTO 25005KT 10SM CLR 12/M05 A3046 RMK AO2
K4BM 190551Z AUTO 25004KT 10SM CLR 13/M05 A3046 RMK AO2 LTG DSNT NW
K4BM 190534Z AUTO 26004KT 10SM CLR 12/M04 A3047 RMK AO2
K4BM 190511Z AUTO 24005KT 10SM CLR 12/M03 A3047 RMK AO2
K4BM 190450Z AUTO 22006KT 10SM CLR 12/M02 A3047 RMK AO2
K4BM 190433Z AUTO 21006KT 10SM CLR 12/M01 A3047 RMK AO2
K4BM 190411Z AUTO 22007KT 10SM CLR 13/M01 A3047 RMK AO2
K4BM 190354Z AUTO 21006KT 10SM CLR 12/M01 A3048 RMK AO2
K4BM 190330Z AUTO 20007KT 10SM CLR 13/M01 A3048 RMK AO2
K4BM 190312Z AUTO 21006KT 10SM CLR 13/M01 A3048 RMK AO2
K4BM 190254Z AUTO 20005KT 10SM CLR 13/M01 A3048 RMK AO2
K4BM 190230Z AUTO 20005KT 10SM CLR 14/M02 A3047 RMK AO2
K4BM 190212Z AUTO 21004KT 10SM SCT095 15/M02 A3047 RMK AO2 LTG DSNT NW
K4BM 190153Z AUTO 20003KT 10SM SCT095 15/M02 A3047 RMK AO2 LTG DSNT NW
K4BM 190135Z AUTO 21004KT 10SM SCT095 15/M02 A3047 RMK AO2 LTG DSNT NW
K4BM 190129Z AUTO 22004KT 10SM BKN095 15/M02 A3047 RMK AO2
K4BM 190111Z AUTO 20005KT 10SM SCT120 16/M02 A3047 RMK AO2 LTG DSNT NW
K4BM 190054Z AUTO 21005KT 10SM SCT100 16/M02 A3047 RMK AO2
K4BM 190048Z AUTO 22006KT 10SM BKN110 17/M02 A3047 RMK AO2
K4BM 190030Z AUTO 20005KT 10SM BKN110 16/M02 A3047 RMK AO2
K4BM 190012Z AUTO 21004KT 10SM CLR 17/M03 A3047 RMK AO2
K4BM 182354Z AUTO 22008KT 10SM SCT110 17/M03 A3047 RMK AO2
K4BM 182348Z AUTO 22008G15KT 10SM SCT110 17/M03 A3047 RMK AO2
K4BM 182330Z AUTO 23006KT 10SM SCT085 SCT120 18/M04 A3047 RMK AO2 LTG DSNT SE AND NW
K4BM 182312Z AUTO 23010G14KT 10SM SCT085 SCT100 18/M04 A3047 RMK AO2 LTG DSNT NW
K4BM 182254Z AUTO 22008G14KT 170V260 10SM SCT085 BKN110 20/M05 A3047 RMK AO2
K4BM 182230Z AUTO 22007G14KT 120V250 10SM OVC110 18/M05 A3047 RMK AO2
K4BM 182212Z AUTO 23012G21KT 10SM BKN110 18/M06 A3047 RMK AO2
K4BM 182154Z AUTO 21007G17KT 190V260 10SM SCT100 21/M06 A3048 RMK AO2 LTG DSNT NW
K4BM 182130Z AUTO 21008G16KT 170V250 10SM CLR 21/M06 A3049 RMK AO2
K4BM 182112Z AUTO 22008G20KT 190V260 10SM CLR 21/M07 A3049 RMK AO2
K4BM 182052Z AUTO 23013G21KT 10SM CLR 21/M07 A3049 RMK AO2 LTG DSNT NW
K4BM 182035Z AUTO 22008G19KT 190V260 10SM CLR 21/M07 A3049 RMK AO2
K4BM 182012Z AUTO 22013G19KT 10SM SCT080 21/M05 A3050 RMK AO2
K4BM 181954Z AUTO 23011G20KT 10SM BKN080 20/M05 A3051 RMK AO2
K4BM 181930Z AUTO 23013G17KT 10SM SCT080 18/M03 A3051 RMK AO2
K4BM 181912Z AUTO 22008G17KT 190V250 10SM CLR 18/M03 A3052 RMK AO2
K4BM 181854Z AUTO 22012G17KT 10SM CLR 20/M02 A3052 RMK AO2
K4BM 181830Z AUTO 22010G20KT 10SM CLR 18/M03 A3053 RMK AO2
K4BM 181812Z AUTO 20004G22KT 10SM CLR 18/M02 A3053 RMK AO2
K4BM 181754Z AUTO 23010G19KT 200V290 10SM CLR 18/M02 A3054 RMK AO2
K4BM 181730Z AUTO 23009KT 10SM CLR 16/M01 A3055 RMK AO2
K4BM 181712Z AUTO 25007G19KT 10SM CLR 16/M01 A3056 RMK AO2
K4BM 181654Z AUTO 23013G18KT 10SM CLR 15/M01 A3056 RMK AO2 LTG DSNT NW
K4BM 181630Z AUTO 23012G22KT 10SM CLR 15/00 A3056 RMK AO2
K4BM 181612Z AUTO 23007KT 190V250 10SM CLR 15/00 A3057 RMK AO2
K4BM 181553Z AUTO 21005KT 10SM CLR 13/00 A3056 RMK AO2
K4BM 181535Z AUTO 21006KT 10SM CLR 13/M01 A3056 RMK AO2 LTG DSNT NW
K4BM 181511Z AUTO 23008KT 10SM CLR 12/M01 A3056 RMK AO2
K4BM 181454Z AUTO 23010G14KT 10SM CLR 12/M01 A3056 RMK AO2
K4BM 181430Z AUTO 23010G16KT 10SM CLR 11/M01 A3056 RMK AO2 LTG DSNT NW
K4BM 181412Z AUTO 23012G17KT 10SM CLR 11/M01 A3056 RMK AO2
K4BM 181354Z AUTO 24010G15KT 10SM CLR 11/M01 A3056 RMK AO2 LTG DSNT NW
K4BM 181330Z AUTO 24009G15KT 10SM CLR 10/M02 A3055 RMK AO2
K4BM 181312Z AUTO 25006KT 10SM CLR 10/M02 A3055 RMK AO2
K4BM 181254Z AUTO 25006KT 10SM CLR 10/M02 A3055 RMK AO2 LTG DSNT NW
K4BM 181230Z AUTO 24007KT 10SM CLR 10/M02 A3055 RMK AO2
K4BM 181212Z AUTO 25005KT 10SM CLR 11/M02 A3054 RMK AO2
K4BM 181154Z AUTO 25005KT 10SM CLR 11/M02 A3054 RMK AO2
K4BM 181130Z AUTO 25006KT 10SM CLR 11/M02 A3054 RMK AO2
K4BM 181112Z AUTO 25007KT 10SM CLR 11/M02 A3054 RMK AO2
K4BM 181053Z AUTO 25006KT 10SM CLR 11/M02 A3054 RMK AO2
K4BM 181030Z AUTO 25007KT 10SM CLR 11/M02 A3053 RMK AO2 LTG DSNT NW
K4BM 181012Z AUTO 26006KT 10SM CLR 11/M02 A3053 RMK AO2
K4BM 180952Z AUTO 27006KT 10SM CLR 11/M02 A3053 RMK AO2
K4BM 180935Z AUTO 26006KT 10SM CLR 11/M03 A3053 RMK AO2 LTG DSNT NW
K4BM 180911Z AUTO 26005KT 10SM CLR 12/M03 A3054 RMK AO2
K4BM 180855Z AUTO 25005KT 10SM CLR 11/M02 A3053 RMK AO2
K4BM 180831Z AUTO 25005KT 10SM CLR 11/M02 A3054 RMK AO2
K4BM 180813Z AUTO 24008KT 10SM CLR 11/M02 A3054 RMK AO2
K4BM 180754Z AUTO 24006KT 10SM CLR 11/M02 A3054 RMK AO2
K4BM 180730Z AUTO 24006KT 10SM CLR 12/M02 A3054 RMK AO2
K4BM 180712Z AUTO 23006KT 10SM CLR 12/M02 A3054 RMK AO2
K4BM 180654Z AUTO 22005KT 10SM CLR 12/M02 A3055 RMK AO2
K4BM 180630Z AUTO 21005KT 10SM SCT080 12/M02 A3055 RMK AO2
K4BM 180612Z AUTO 21006KT 10SM SCT080 12/M02 A3055 RMK AO2 LTG DSNT NW
K4BM 180554Z AUTO 20007KT 10SM BKN080 12/M02 A3055 RMK AO2
K4BM 180530Z AUTO 20006KT 10SM BKN090 12/M02 A3055 RMK AO2
K4BM 180512Z AUTO 20007KT 10SM BKN090 13/M02 A3055 RMK AO2
K4BM 180454Z AUTO 20008KT 10SM SCT075 SCT090 12/M03 A3056 RMK AO2